Time;durP1;ratioP1;P1;durP2;ratioP2;P2;SDS_P1;SDS_P2;PMS_P1;PMS_P2;Temp;Humidity;BMP_temperature;BMP_pressure;BME280_temperature;BME280_humidity;BME280_pressure;Samples;Min_cycle;Max_cycle;Signal;HPM_P1;HPM_P2
2022/03/31 00:00:33;;;;;;;5.45;2.95;;;;;;;-2.36;75.73;100454.00;4976175;28;20048;-63
2022/03/31 00:03:03;;;;;;;3.85;2.55;;;;;;;-2.38;75.24;100458.47;4975048;28;20494;-63
2022/03/31 00:05:28;;;;;;;4.97;3.10;;;;;;;-2.33;75.70;100468.66;4975421;28;20050;-63
2022/03/31 00:07:59;;;;;;;4.67;3.27;;;;;;;-2.37;75.36;100462.78;4975225;28;20046;-61
2022/03/31 00:10:29;;;;;;;5.60;2.58;;;;;;;-2.42;74.99;100471.78;4974897;28;20054;-64
2022/03/31 00:12:56;;;;;;;4.65;2.92;;;;;;;-2.42;74.93;100464.81;4975599;28;20038;-64
2022/03/31 00:15:24;;;;;;;4.75;3.05;;;;;;;-2.57;74.82;100463.09;4976518;28;20077;-65
2022/03/31 00:17:50;;;;;;;3.95;3.05;;;;;;;-2.62;74.92;100472.91;4974862;28;20101;-64
2022/03/31 00:20:15;;;;;;;5.67;3.30;;;;;;;-2.68;75.04;100478.47;4974899;28;20446;-63
2022/03/31 00:22:41;;;;;;;3.73;3.23;;;;;;;-2.81;75.53;100473.94;4974892;28;20035;-61
2022/03/31 00:25:08;;;;;;;3.95;3.10;;;;;;;-2.85;76.05;100482.88;4974914;28;20073;-62
2022/03/31 00:27:37;;;;;;;4.78;3.10;;;;;;;-2.85;76.44;100477.66;4974712;28;20085;-64
2022/03/31 00:30:06;;;;;;;5.03;3.05;;;;;;;-2.82;76.42;100481.84;4975742;28;20049;-63
2022/03/31 00:32:33;;;;;;;15.10;5.28;;;;;;;-2.79;75.73;100478.22;4974285;28;20039;-63
2022/03/31 00:34:58;;;;;;;7.60;4.05;;;;;;;-2.79;75.88;100483.44;4974679;28;20398;-64
2022/03/31 00:37:24;;;;;;;5.10;4.10;;;;;;;-2.73;75.89;100485.72;4974560;28;20047;-64
2022/03/31 00:39:50;;;;;;;4.07;2.47;;;;;;;-2.68;75.63;100483.69;4957130;28;20172;-64
2022/03/31 00:42:16;;;;;;;10.33;6.07;;;;;;;-2.68;74.92;100470.66;4974489;28;20069;-63
2022/03/31 00:44:43;;;;;;;10.75;5.10;;;;;;;-2.54;74.55;100489.81;4977470;28;20149;-62
2022/03/31 00:47:09;;;;;;;7.32;3.83;;;;;;;-2.50;74.77;100493.09;4974391;28;20482;-63
2022/03/31 00:49:35;;;;;;;4.50;3.63;;;;;;;-2.70;74.44;100485.53;4974504;28;20038;-64
2022/03/31 00:52:01;;;;;;;4.93;3.50;;;;;;;-2.87;75.32;100489.94;4957174;28;20502;-63
2022/03/31 00:54:27;;;;;;;5.85;3.00;;;;;;;-2.96;75.50;100495.63;4974902;28;20413;-61
2022/03/31 00:56:53;;;;;;;4.50;2.70;;;;;;;-3.03;76.16;100499.50;4974192;28;20043;-64
2022/03/31 00:59:19;;;;;;;5.05;3.13;;;;;;;-3.08;76.30;100501.50;4978186;28;20042;-62
2022/03/31 01:01:46;;;;;;;5.07;3.28;;;;;;;-3.03;76.50;100501.25;4974248;28;20043;-62
2022/03/31 01:04:13;;;;;;;5.68;3.53;;;;;;;-2.98;76.72;100505.28;4974110;28;20450;-62
2022/03/31 01:06:44;;;;;;;6.57;4.35;;;;;;;-3.01;76.33;100496.78;4974033;28;20137;-63
2022/03/31 01:09:12;;;;;;;6.85;3.20;;;;;;;-3.02;75.90;100495.97;4974953;28;20042;-64
2022/03/31 01:11:39;;;;;;;6.38;3.00;;;;;;;-3.16;76.18;100482.84;4974654;28;20043;-63
2022/03/31 01:14:06;;;;;;;5.65;3.33;;;;;;;-3.09;76.71;100502.44;4976054;28;20364;-63
2022/03/31 01:16:32;;;;;;;3.42;3.13;;;;;;;-3.13;76.09;100509.56;4974846;28;20042;-64
2022/03/31 01:19:03;;;;;;;4.33;3.60;;;;;;;-3.06;76.22;100506.63;4973941;28;20596;-65
2022/03/31 01:21:29;;;;;;;4.20;3.10;;;;;;;-3.07;76.37;100510.16;4973894;28;20357;-62
2022/03/31 01:23:55;;;;;;;5.93;3.23;;;;;;;-3.06;76.44;100515.28;4973663;28;20130;-64
2022/03/31 01:26:21;;;;;;;5.28;3.75;;;;;;;-3.07;76.09;100517.97;4973489;28;20097;-61
2022/03/31 01:28:47;;;;;;;4.30;3.17;;;;;;;-3.00;76.70;100516.72;4974236;28;20070;-62
2022/03/31 01:31:13;;;;;;;6.27;3.77;;;;;;;-2.92;76.36;100523.19;4974617;28;20498;-61
2022/03/31 01:33:40;;;;;;;4.05;3.10;;;;;;;-2.81;76.03;100530.44;4974396;28;20082;-64
2022/03/31 01:36:07;;;;;;;7.50;3.80;;;;;;;-2.81;75.56;100522.63;4956562;28;20741;-63
2022/03/31 01:38:33;;;;;;;4.50;3.67;;;;;;;-2.83;75.56;100524.47;4973831;28;20042;-64
2022/03/31 01:40:59;;;;;;;5.65;4.57;;;;;;;-2.85;76.27;100527.16;4973782;28;20039;-64
2022/03/31 01:43:26;;;;;;;6.87;3.97;;;;;;;-2.85;75.74;100537.59;4974608;28;20520;-62
2022/03/31 01:45:53;;;;;;;4.88;3.15;;;;;;;-2.99;75.93;100508.81;4975595;28;20074;-64
2022/03/31 01:48:19;;;;;;;5.60;3.55;;;;;;;-2.86;75.30;100533.31;4978615;28;20083;-63
2022/03/31 01:50:45;;;;;;;6.50;3.15;;;;;;;-2.85;75.69;100534.97;4958131;28;20051;-62
2022/03/31 01:53:11;;;;;;;4.73;3.07;;;;;;;-2.81;75.63;100536.50;4973854;28;20482;-63
2022/03/31 01:55:37;;;;;;;7.20;3.60;;;;;;;-2.81;75.29;100541.72;4973134;28;20035;-63
2022/03/31 01:58:03;;;;;;;3.70;3.30;;;;;;;-2.84;74.81;100541.88;4973299;28;20034;-63
2022/03/31 02:00:29;;;;;;;6.45;3.50;;;;;;;-2.96;75.91;100537.31;4974914;28;20031;-62
2022/03/31 02:02:55;;;;;;;5.40;3.47;;;;;;;-2.99;75.42;100545.28;4973664;28;20409;-62
2022/03/31 02:05:21;;;;;;;7.03;3.17;;;;;;;-2.96;75.51;100539.06;4973690;28;20039;-63
2022/03/31 02:07:47;;;;;;;5.40;3.25;;;;;;;-2.88;75.84;100542.97;4975284;28;20106;-63
2022/03/31 02:10:15;;;;;;;4.40;3.70;;;;;;;-2.94;75.57;100543.28;4975400;28;20047;-64
2022/03/31 02:12:41;;;;;;;7.43;2.83;;;;;;;-2.93;75.42;100547.56;4975200;28;20074;-67
2022/03/31 02:15:08;;;;;;;3.90;3.30;;;;;;;-2.95;76.30;100553.78;4976559;28;20049;-64
2022/03/31 02:17:35;;;;;;;5.20;3.25;;;;;;;-2.96;76.10;100539.06;4974433;28;20043;-62
2022/03/31 02:20:01;;;;;;;3.90;2.77;;;;;;;-2.95;76.20;100551.19;4973185;28;20039;-65
2022/03/31 02:22:26;;;;;;;4.28;3.13;;;;;;;-2.88;76.05;100549.94;4972828;28;20122;-64
2022/03/31 02:24:52;;;;;;;4.90;3.10;;;;;;;-2.86;75.65;100556.75;4972824;28;20462;-61
2022/03/31 02:27:17;;;;;;;6.60;3.37;;;;;;;-2.85;75.10;100550.63;4973277;28;20447;-62
2022/03/31 02:29:43;;;;;;;5.33;2.73;;;;;;;-2.82;75.25;100555.66;4974029;28;20035;-64
2022/03/31 02:32:09;;;;;;;4.43;4.00;;;;;;;-2.86;75.90;100559.38;4973700;28;20081;-63
2022/03/31 02:34:35;;;;;;;7.80;3.37;;;;;;;-2.95;76.16;100565.03;4973350;28;20130;-61
2022/03/31 02:37:01;;;;;;;3.78;2.80;;;;;;;-3.00;76.57;100566.22;4973454;28;20043;-63
2022/03/31 02:39:30;;;;;;;5.18;3.63;;;;;;;-3.01;76.66;100564.53;4973771;28;20035;-61
2022/03/31 02:42:01;;;;;;;3.28;2.60;;;;;;;-3.05;76.56;100563.84;4973528;28;20038;-62
2022/03/31 02:47:17;;;;;;;4.60;3.10;;;;;;;-2.93;76.04;100576.22;4973669;28;20039;-63
2022/03/31 02:49:43;;;;;;;5.33;4.80;;;;;;;-2.98;76.05;100557.41;4955430;28;20094;-63
2022/03/31 02:52:09;;;;;;;5.25;3.22;;;;;;;-2.93;75.56;100571.00;4973852;28;20039;-65
2022/03/31 02:57:19;;;;;;;4.45;3.15;;;;;;;-2.90;75.64;100575.22;4976423;28;20046;-62
2022/03/31 02:59:45;;;;;;;4.53;3.05;;;;;;;-2.97;75.84;100572.09;4977563;28;20035;-61
2022/03/31 03:02:11;;;;;;;4.93;2.97;;;;;;;-3.07;75.59;100573.53;4960521;28;20035;-67
2022/03/31 03:04:37;;;;;;;4.18;3.40;;;;;;;-3.26;77.04;100575.41;4976076;28;20081;-64
2022/03/31 03:07:03;;;;;;;4.37;2.90;;;;;;;-3.36;76.92;100571.59;4976248;28;20123;-63
2022/03/31 03:09:29;;;;;;;4.23;3.10;;;;;;;-3.34;76.92;100577.56;4976199;28;20094;-64
2022/03/31 03:11:54;;;;;;;5.13;3.77;;;;;;;-3.37;76.93;100586.38;4976191;28;20058;-63
2022/03/31 03:14:45;;;;;;;4.28;3.45;;;;;;;-3.36;77.17;100592.41;4977559;28;20062;-64
2022/03/31 03:17:11;;;;;;;3.87;2.83;;;;;;;-3.45;77.73;100589.38;4978297;28;20486;-63
2022/03/31 03:19:36;;;;;;;5.40;3.47;;;;;;;-3.42;77.97;100600.56;4976066;28;20049;-63
2022/03/31 03:22:02;;;;;;;6.40;3.60;;;;;;;-3.47;77.61;100592.94;4976343;28;20042;-64
2022/03/31 03:24:28;;;;;;;6.07;3.63;;;;;;;-3.46;77.91;100600.72;4976025;28;20049;-63
2022/03/31 03:26:55;;;;;;;6.32;3.38;;;;;;;-3.46;77.73;100603.31;4958533;28;20042;-62
2022/03/31 03:29:21;;;;;;;4.35;3.20;;;;;;;-3.46;77.72;100598.09;4975754;28;20134;-64
2022/03/31 03:31:47;;;;;;;5.88;3.83;;;;;;;-3.40;77.63;100607.38;4977458;28;20041;-65
2022/03/31 03:34:13;;;;;;;6.23;3.60;;;;;;;-3.41;77.46;100610.03;4975929;28;20035;-64
2022/03/31 03:36:39;;;;;;;4.85;3.30;;;;;;;-3.52;77.50;100601.00;4975499;28;20493;-63
2022/03/31 03:39:06;;;;;;;3.57;3.20;;;;;;;-3.62;77.69;100594.56;4942286;28;20039;-62
2022/03/31 03:41:32;;;;;;;5.95;3.15;;;;;;;-3.50;77.42;100612.16;4975475;28;20515;-62
2022/03/31 03:43:58;;;;;;;3.85;3.25;;;;;;;-3.44;77.80;100619.69;4958029;28;20141;-62
2022/03/31 03:46:49;;;;;;;5.57;3.58;;;;;;;-3.40;77.33;100624.75;4979085;28;20157;-63
2022/03/31 03:49:14;;;;;;;5.37;3.40;;;;;;;-3.40;77.46;100616.94;4975572;28;20125;-63
2022/03/31 03:51:40;;;;;;;4.20;3.80;;;;;;;-3.67;76.96;100580.97;4975949;28;20459;-62
2022/03/31 03:54:05;;;;;;;4.37;3.43;;;;;;;-3.43;76.82;100625.75;4975602;28;20039;-61
2022/03/31 03:56:31;;;;;;;10.37;3.80;;;;;;;-3.38;76.77;100633.31;4975132;28;20039;-64
2022/03/31 03:58:56;;;;;;;4.60;3.40;;;;;;;-3.40;77.03;100635.16;4975442;28;20087;-63
2022/03/31 04:01:22;;;;;;;7.60;3.17;;;;;;;-3.41;76.85;100629.13;4977598;28;20070;-63
2022/03/31 04:03:47;;;;;;;4.13;3.33;;;;;;;-3.38;76.40;100633.31;4975138;28;20037;-64
2022/03/31 04:06:13;;;;;;;4.77;3.47;;;;;;;-3.40;76.94;100640.38;4975134;28;20046;-64
2022/03/31 04:08:39;;;;;;;6.17;3.63;;;;;;;-3.41;76.40;100643.91;4975211;28;20125;-62
2022/03/31 04:11:05;;;;;;;4.05;3.00;;;;;;;-3.42;77.49;100643.06;4975281;28;20034;-65
2022/03/31 04:13:31;;;;;;;5.00;3.50;;;;;;;-3.41;77.06;100639.53;4975253;28;20438;-64
2022/03/31 04:15:57;;;;;;;5.28;3.60;;;;;;;-3.34;77.43;100650.47;4976971;28;20047;-65
2022/03/31 04:18:22;;;;;;;7.70;4.37;;;;;;;-3.39;76.67;100639.44;4975755;28;20051;-63
2022/03/31 04:20:48;;;;;;;9.67;3.67;;;;;;;-3.32;76.78;100649.47;4974857;28;20453;-62
2022/03/31 04:23:13;;;;;;;6.13;2.87;;;;;;;-3.33;77.26;100647.78;4974894;28;20042;-64
2022/03/31 04:25:39;;;;;;;4.20;2.70;;;;;;;-3.30;76.68;100652.00;4974763;28;20035;-62
2022/03/31 04:28:04;;;;;;;3.03;2.73;;;;;;;-3.31;76.69;100652.91;4974943;28;20491;-66
2022/03/31 04:30:30;;;;;;;6.10;3.17;;;;;;;-3.26;77.32;100663.94;4975464;28;20043;-63
2022/03/31 04:32:55;;;;;;;10.53;8.90;;;;;;;-3.24;77.53;100662.09;4977163;28;20034;-63
2022/03/31 04:35:21;;;;;;;5.63;3.83;;;;;;;-3.10;77.32;100661.41;4974607;28;20047;-64
2022/03/31 04:37:47;;;;;;;5.57;3.90;;;;;;;-2.96;76.33;100670.19;4974573;28;20034;-65
2022/03/31 04:40:14;;;;;;;3.53;3.22;;;;;;;-2.96;76.29;100667.59;4974338;28;20039;-64
2022/03/31 04:42:41;;;;;;;5.43;3.47;;;;;;;-2.94;76.44;100676.16;4974013;28;20035;-66
2022/03/31 04:45:07;;;;;;;6.57;3.30;;;;;;;-2.92;75.75;100678.69;4974123;28;20050;-62
2022/03/31 04:47:33;;;;;;;5.88;3.50;;;;;;;-2.98;76.30;100673.81;4976741;28;20169;-64
2022/03/31 04:49:58;;;;;;;3.67;3.33;;;;;;;-3.06;76.53;100691.59;4974293;28;20125;-64
2022/03/31 04:52:24;;;;;;;5.60;3.77;;;;;;;-3.14;76.58;100685.03;4974082;28;20089;-67
2022/03/31 04:54:50;;;;;;;5.67;3.20;;;;;;;-3.14;76.82;100690.22;4974318;28;20039;-64
2022/03/31 04:57:23;;;;;;;3.70;3.40;;;;;;;-3.08;76.85;100698.66;4975944;28;20180;-62
2022/03/31 04:59:49;;;;;;;5.38;2.95;;;;;;;-3.09;76.64;100687.38;4974464;28;20179;-63
2022/03/31 05:02:15;;;;;;;4.40;3.23;;;;;;;-3.04;76.06;100695.81;4977112;28;20091;-62
2022/03/31 05:04:41;;;;;;;4.73;2.90;;;;;;;-3.10;76.02;100682.25;4973771;28;20046;-63
2022/03/31 05:07:06;;;;;;;7.20;3.78;;;;;;;-3.03;76.10;100696.66;4973828;28;20070;-66
2022/03/31 05:09:32;;;;;;;11.87;3.93;;;;;;;-3.05;76.12;100701.94;4956695;28;20038;-63
2022/03/31 05:11:58;;;;;;;4.60;2.90;;;;;;;-3.11;76.84;100707.47;4974076;28;20074;-64
2022/03/31 05:14:24;;;;;;;6.60;4.37;;;;;;;-3.15;76.33;100703.34;4956133;28;20058;-64
2022/03/31 05:16:50;;;;;;;4.63;3.40;;;;;;;-3.30;77.02;100698.88;4975229;28;20050;-63
2022/03/31 05:19:16;;;;;;;5.50;3.27;;;;;;;-3.26;76.79;100709.06;4974213;28;20130;-67
2022/03/31 05:21:42;;;;;;;3.40;2.88;;;;;;;-3.18;77.12;100721.69;4973710;28;20517;-64
2022/03/31 05:24:07;;;;;;;5.40;2.90;;;;;;;-3.11;76.86;100720.50;4973739;28;20038;-66
2022/03/31 05:26:32;;;;;;;4.77;2.87;;;;;;;-3.07;76.18;100722.00;4973455;28;20506;-68
2022/03/31 05:28:58;;;;;;;3.37;2.97;;;;;;;-3.04;76.22;100721.84;4973682;28;20649;-64
2022/03/31 05:31:24;;;;;;;6.23;3.60;;;;;;;-3.01;75.80;100721.69;4975025;28;20038;-66
2022/03/31 05:33:49;;;;;;;6.90;3.10;;;;;;;-2.92;75.86;100726.44;4974733;28;20125;-64
2022/03/31 05:36:15;;;;;;;5.77;3.20;;;;;;;-2.83;75.91;100731.19;4973259;28;20039;-62
2022/03/31 05:38:40;;;;;;;5.10;3.10;;;;;;;-2.78;75.56;100727.50;4973026;28;20475;-63
2022/03/31 05:41:06;;;;;;;7.60;3.83;;;;;;;-2.83;75.33;100731.19;4973508;28;20105;-62
2022/03/31 05:43:31;;;;;;;6.50;3.40;;;;;;;-2.78;74.98;100728.34;4973205;28;20055;-64
2022/03/31 05:45:57;;;;;;;4.90;3.47;;;;;;;-2.76;75.20;100746.53;4973643;28;20043;-66
2022/03/31 05:48:22;;;;;;;6.63;4.03;;;;;;;-2.75;75.39;100740.38;4976856;28;20034;-64
2022/03/31 05:50:48;;;;;;;6.83;3.33;;;;;;;-2.70;74.91;100743.59;4973484;28;20038;-64
2022/03/31 05:53:15;;;;;;;8.17;3.53;;;;;;;-2.67;74.51;100752.09;4973396;28;20070;-65
2022/03/31 05:55:41;;;;;;;5.22;3.42;;;;;;;-2.65;74.72;100749.41;4973947;28;20046;-62
2022/03/31 05:58:08;;;;;;;6.20;4.25;;;;;;;-2.61;74.36;100756.16;4973325;28;20043;-65
2022/03/31 06:00:33;;;;;;;7.80;3.50;;;;;;;-2.61;74.91;100749.16;4972364;28;20038;-61
2022/03/31 06:02:59;;;;;;;7.23;3.57;;;;;;;-2.60;74.67;100757.88;4972750;28;20797;-61
2022/03/31 06:05:24;;;;;;;5.97;3.47;;;;;;;-2.53;75.09;100764.44;4959287;28;20031;-63
2022/03/31 06:07:53;;;;;;;5.20;3.90;;;;;;;-2.52;74.39;100766.13;4972986;28;20046;-62
2022/03/31 06:10:20;;;;;;;6.22;3.80;;;;;;;-2.55;74.86;100761.06;4973231;28;20030;-68
2022/03/31 06:12:46;;;;;;;7.15;4.18;;;;;;;-2.52;74.83;100779.16;4973219;28;20529;-65
2022/03/31 06:15:13;;;;;;;6.77;3.53;;;;;;;-2.55;74.47;100774.13;4972952;28;20031;-67
2022/03/31 06:17:41;;;;;;;5.07;3.55;;;;;;;-2.47;74.41;100777.16;4977725;28;20163;-68
2022/03/31 06:20:09;;;;;;;6.03;4.13;;;;;;;-2.37;73.78;100774.91;4972844;28;20043;-67
2022/03/31 06:22:34;;;;;;;6.47;3.72;;;;;;;-2.24;73.97;100781.19;4973109;28;20060;-66
2022/03/31 06:25:00;;;;;;;4.77;3.50;;;;;;;-2.09;73.75;100784.72;4955923;28;20566;-65
2022/03/31 06:27:27;;;;;;;7.05;4.20;;;;;;;-1.92;73.36;100788.13;4976306;28;20097;-66
2022/03/31 06:29:53;;;;;;;5.87;4.50;;;;;;;-1.72;72.19;100784.47;4976971;28;20486;-70
2022/03/31 06:32:19;;;;;;;12.80;4.20;;;;;;;-1.46;71.73;100801.28;4979038;28;20093;-69
2022/03/31 06:34:45;;;;;;;12.65;4.18;;;;;;;-1.17;70.67;100797.03;4978010;28;20037;-58
2022/03/31 06:37:11;;;;;;;15.27;4.93;;;;;;;-1.02;69.73;100804.00;4976762;28;20129;-66
2022/03/31 06:39:37;;;;;;;14.38;3.42;;;;;;;-0.93;68.76;100805.25;4959904;28;20030;-61
2022/03/31 06:42:04;;;;;;;11.00;3.97;;;;;;;-0.87;69.27;100810.13;4976442;28;20045;-61
2022/03/31 06:44:31;;;;;;;8.25;4.45;;;;;;;-0.74;68.88;100799.81;4975862;28;20063;-57
2022/03/31 06:46:57;;;;;;;10.98;3.47;;;;;;;-0.59;68.45;100809.34;4975643;28;20074;-64
2022/03/31 06:49:23;;;;;;;5.33;3.43;;;;;;;-0.44;67.52;100810.25;4976859;28;20462;-63
2022/03/31 06:51:50;;;;;;;8.60;3.93;;;;;;;-0.31;67.18;100809.41;4976593;28;20046;-61
2022/03/31 06:54:18;;;;;;;6.10;3.50;;;;;;;-0.09;66.63;100813.34;4976533;28;20239;-61
2022/03/31 06:56:44;;;;;;;6.85;3.45;;;;;;;0.13;65.76;100821.56;4976308;28;20034;-67
2022/03/31 06:59:10;;;;;;;10.25;4.32;;;;;;;0.13;65.51;100818.97;4976192;28;20112;-68
2022/03/31 07:01:35;;;;;;;10.03;4.27;;;;;;;0.29;65.99;100814.47;4976107;28;20467;-67
2022/03/31 07:04:01;;;;;;;7.93;3.97;;;;;;;0.35;65.44;100815.84;4977302;28;20035;-67
2022/03/31 07:06:26;;;;;;;9.83;3.97;;;;;;;0.05;66.11;100826.44;4975552;28;20030;-65
2022/03/31 07:08:52;;;;;;;8.83;4.23;;;;;;;-0.35;67.45;100817.53;4975267;28;20042;-60
2022/03/31 07:11:17;;;;;;;10.80;3.90;;;;;;;-0.63;68.07;100823.53;4974739;28;20034;-61
2022/03/31 07:13:43;;;;;;;11.20;4.10;;;;;;;-0.65;68.69;100834.09;4975273;28;20066;-63
2022/03/31 07:16:09;;;;;;;8.93;4.60;;;;;;;-0.63;68.75;100834.00;4974480;28;20081;-62
2022/03/31 07:18:36;;;;;;;14.30;5.53;;;;;;;-0.63;69.46;100837.47;4975383;28;20058;-66
2022/03/31 07:21:02;;;;;;;11.00;4.27;;;;;;;-0.61;68.76;100837.38;4975208;28;20026;-64
2022/03/31 07:23:28;;;;;;;6.85;4.15;;;;;;;-0.70;69.13;100833.53;4975603;28;20042;-64
2022/03/31 07:25:54;;;;;;;6.87;4.07;;;;;;;-0.73;69.19;100840.72;4975540;28;20086;-65
2022/03/31 07:28:21;;;;;;;4.10;2.90;;;;;;;-0.83;68.12;100836.97;4973643;28;20049;-68
2022/03/31 07:30:47;;;;;;;8.75;3.58;;;;;;;-0.86;69.09;100843.22;4974450;28;20070;-65
2022/03/31 07:33:13;;;;;;;15.13;4.13;;;;;;;-0.93;68.64;100834.00;4976603;28;20049;-61
2022/03/31 07:35:41;;;;;;;9.70;3.67;;;;;;;-0.86;68.55;100844.97;4976348;28;20039;-65
2022/03/31 07:38:10;;;;;;;11.70;4.63;;;;;;;-0.80;68.13;100847.25;4975773;28;20047;-63
2022/03/31 07:40:38;;;;;;;9.48;2.75;;;;;;;-0.68;68.39;100856.97;4977109;28;20035;-61
2022/03/31 07:43:06;;;;;;;8.43;4.00;;;;;;;-0.63;68.27;100852.31;4976761;28;20441;-65
2022/03/31 07:45:34;;;;;;;4.80;3.25;;;;;;;-0.54;68.23;100848.34;4976178;28;20038;-64
2022/03/31 07:48:02;;;;;;;7.22;4.25;;;;;;;-0.52;67.75;100862.19;4976717;28;20517;-67
2022/03/31 07:50:29;;;;;;;7.65;3.08;;;;;;;-0.52;68.17;100857.78;4976532;28;20054;-65
2022/03/31 07:52:54;;;;;;;8.20;3.47;;;;;;;-0.37;67.87;100862.09;4975933;28;20054;-71
2022/03/31 07:55:20;;;;;;;10.30;4.23;;;;;;;-0.38;67.69;100876.13;4975813;28;20031;-66
2022/03/31 07:57:46;;;;;;;3.20;2.47;;;;;;;-0.43;67.63;100867.72;4975275;28;20387;-70
2022/03/31 08:00:13;;;;;;;5.90;3.20;;;;;;;-0.53;67.94;100876.19;4975560;28;20039;-67
2022/03/31 08:02:41;;;;;;;4.07;2.93;;;;;;;-0.51;67.88;100874.31;4975334;28;20405;-68
2022/03/31 08:05:07;;;;;;;5.67;3.73;;;;;;;-0.36;67.13;100873.41;4977131;28;20329;-63
2022/03/31 08:07:33;;;;;;;14.00;3.57;;;;;;;-0.09;66.80;100884.03;4975161;28;20298;-64
2022/03/31 08:09:59;;;;;;;11.53;4.43;;;;;;;0.13;65.64;100881.81;4975183;28;20310;-63
2022/03/31 08:12:25;;;;;;;18.43;4.07;;;;;;;0.44;65.86;100874.69;4975076;28;20035;-70
2022/03/31 08:14:50;;;;;;;10.13;3.80;;;;;;;0.64;63.67;100882.16;4974965;28;20277;-61
2022/03/31 08:17:17;;;;;;;7.97;3.27;;;;;;;0.81;62.75;100889.78;4958243;28;20043;-59
2022/03/31 08:19:43;;;;;;;6.43;3.13;;;;;;;1.00;61.84;100897.34;4976742;28;20055;-62
2022/03/31 08:22:11;;;;;;;7.57;3.40;;;;;;;1.21;61.60;100895.13;4975738;28;20282;-64
2022/03/31 08:24:36;;;;;;;6.30;3.57;;;;;;;1.19;61.59;100900.47;4958727;28;20046;-64
2022/03/31 08:27:03;;;;;;;9.63;2.83;;;;;;;1.44;61.07;100899.69;4974518;28;20301;-66
2022/03/31 08:29:29;;;;;;;13.83;2.90;;;;;;;1.42;60.90;100892.84;4975110;28;20038;-63
2022/03/31 08:32:01;;;;;;;10.13;3.47;;;;;;;1.38;60.61;100900.09;4974821;28;20300;-67
2022/03/31 08:34:27;;;;;;;5.60;2.57;;;;;;;1.68;59.05;100897.22;4976047;28;20278;-62
2022/03/31 08:36:53;;;;;;;7.90;2.50;;;;;;;1.93;58.94;100899.03;4974575;28;20266;-66
2022/03/31 08:39:18;;;;;;;17.27;2.60;;;;;;;1.80;58.58;100906.09;4974850;28;20269;-65
2022/03/31 08:41:54;;;;;;;7.37;2.30;;;;;;;1.46;58.86;100912.72;4941754;28;20275;-69
2022/03/31 08:44:25;;;;;;;5.10;2.38;;;;;;;1.32;58.82;100905.75;4957679;28;20149;-67
2022/03/31 08:46:52;;;;;;;10.18;3.10;;;;;;;1.39;58.82;100916.69;4941333;28;20050;-64
2022/03/31 08:49:17;;;;;;;10.37;2.87;;;;;;;1.34;57.92;100919.59;4957400;28;20141;-65
2022/03/31 08:51:44;;;;;;;7.97;3.10;;;;;;;1.52;57.53;100918.41;4974337;28;20362;-67
2022/03/31 08:54:11;;;;;;;9.97;2.30;;;;;;;1.73;56.19;100925.78;4974838;28;20093;-67
2022/03/31 08:56:39;;;;;;;2.97;2.10;;;;;;;1.99;54.96;100927.53;4942732;28;20275;-65
2022/03/31 08:59:07;;;;;;;5.90;1.92;;;;;;;1.98;53.67;100919.75;4975843;28;20333;-66
2022/03/31 09:01:33;;;;;;;5.67;2.53;;;;;;;2.09;52.72;100923.34;4957986;28;20177;-67
2022/03/31 09:04:00;;;;;;;7.80;2.20;;;;;;;2.34;52.96;100932.19;4977990;28;20263;-68
2022/03/31 09:06:30;;;;;;;4.00;2.27;;;;;;;2.23;51.77;100925.00;4929787;28;20284;-66
2022/03/31 09:09:02;;;;;;;5.13;1.87;;;;;;;2.32;51.50;100928.81;4961658;28;20423;-68
2022/03/31 09:11:32;;;;;;;5.97;2.50;;;;;;;2.47;51.79;100927.75;4959538;28;20270;-61
2022/03/31 09:14:08;;;;;;;7.83;2.37;;;;;;;2.62;50.37;100937.22;4956981;28;20274;-70
2022/03/31 09:16:36;;;;;;;9.60;2.47;;;;;;;2.71;49.02;100931.28;4958540;28;20693;-66
2022/03/31 09:19:11;;;;;;;2.93;1.63;;;;;;;2.77;49.79;100944.00;4973853;28;20301;-70
2022/03/31 09:22:02;;;;;;;8.10;2.00;;;;;;;2.85;49.09;100937.34;4974392;28;20277;-64
2022/03/31 09:24:29;;;;;;;6.40;1.83;;;;;;;2.76;48.82;100931.81;4973981;28;20377;-62
2022/03/31 09:26:58;;;;;;;3.90;2.10;;;;;;;2.83;49.03;100929.56;4974061;28;20109;-62
2022/03/31 09:29:26;;;;;;;3.80;1.73;;;;;;;2.54;50.18;100934.25;4974179;28;20309;-69
2022/03/31 09:32:04;;;;;;;2.83;1.90;;;;;;;2.67;49.57;100940.34;4973701;28;20058;-67
2022/03/31 09:34:38;;;;;;;4.47;1.83;;;;;;;2.87;48.68;100948.59;4974247;28;20037;-64
2022/03/31 09:37:08;;;;;;;5.30;1.93;;;;;;;3.01;48.87;100944.06;4974221;28;20273;-65
2022/03/31 09:39:34;;;;;;;5.83;2.07;;;;;;;3.07;48.12;100943.63;4973933;28;20312;-63
2022/03/31 09:41:59;;;;;;;4.77;1.80;;;;;;;3.21;47.72;100940.00;4976463;28;20273;-63
2022/03/31 09:44:26;;;;;;;5.87;1.90;;;;;;;3.45;48.07;100947.03;4973546;28;20088;-64
2022/03/31 09:46:52;;;;;;;4.80;2.43;;;;;;;3.50;47.72;100939.66;4973302;28;20054;-62
2022/03/31 09:49:21;;;;;;;4.50;1.77;;;;;;;3.42;47.27;100943.69;4940280;28;20274;-68
2022/03/31 09:51:50;;;;;;;2.60;1.73;;;;;;;3.56;46.59;100944.47;4955964;28;20266;-66
2022/03/31 09:54:17;;;;;;;2.88;2.03;;;;;;;3.66;47.19;100941.03;4973842;28;20042;-66
2022/03/31 09:56:43;;;;;;;3.50;2.27;;;;;;;3.86;47.22;100947.47;4973263;28;20039;-69
2022/03/31 09:59:12;;;;;;;5.70;2.13;;;;;;;4.04;45.46;100946.06;4973426;28;20800;-66
2022/03/31 10:01:39;;;;;;;4.22;2.00;;;;;;;4.08;45.17;100946.69;4973134;28;20280;-69
2022/03/31 10:04:06;;;;;;;6.20;2.57;;;;;;;3.86;45.60;100958.00;4972973;28;20046;-68
2022/03/31 10:06:37;;;;;;;7.10;2.87;;;;;;;3.88;46.11;100948.19;4973398;28;20305;-66
2022/03/31 10:09:05;;;;;;;3.20;2.10;;;;;;;3.91;46.41;100950.59;4973134;28;20420;-64
2022/03/31 10:11:33;;;;;;;3.70;2.03;;;;;;;3.79;47.23;100962.06;4972782;28;20304;-67
2022/03/31 10:14:17;;;;;;;8.15;2.20;;;;;;;3.53;47.86;100960.50;4955984;28;20741;-66
2022/03/31 10:16:53;;;;;;;7.67;2.50;;;;;;;3.24;48.58;100957.38;4972793;28;20074;-66
2022/03/31 10:19:35;;;;;;;3.67;1.90;;;;;;;3.26;48.75;100952.81;4973053;28;20308;-63
2022/03/31 10:25:15;;;;;;;3.57;1.90;;;;;;;3.49;48.23;100970.44;4972870;28;20336;-62
2022/03/31 10:27:46;;;;;;;6.95;2.00;;;;;;;3.46;45.69;100959.25;4972871;28;20263;-63
2022/03/31 10:30:23;;;;;;;5.20;1.90;;;;;;;3.38;46.47;100968.56;4972965;28;20041;-66
2022/03/31 10:33:03;;;;;;;4.50;1.70;;;;;;;3.30;45.55;100965.66;4972898;28;20278;-63
2022/03/31 10:35:32;;;;;;;5.67;2.50;;;;;;;3.34;47.26;100966.25;4973477;28;20377;-66
2022/03/31 10:38:10;;;;;;;10.77;4.07;;;;;;;3.50;46.97;100972.09;4973200;28;20290;-64
2022/03/31 10:40:38;;;;;;;4.32;2.25;;;;;;;3.71;45.95;100970.50;4972852;28;20061;-66
2022/03/31 10:43:05;;;;;;;4.22;2.33;;;;;;;3.65;45.50;100976.22;4972300;28;20499;-67
2022/03/31 10:45:44;;;;;;;5.33;1.77;;;;;;;3.73;46.58;100968.59;4973387;28;20086;-66
2022/03/31 10:48:23;;;;;;;7.47;2.30;;;;;;;3.67;45.01;100962.94;4973504;28;20297;-65
2022/03/31 10:51:00;;;;;;;7.17;2.00;;;;;;;3.87;45.08;100967.59;4973263;28;20062;-63
2022/03/31 10:53:30;;;;;;;5.37;2.50;;;;;;;3.75;44.17;100971.13;4972692;28;20309;-65
2022/03/31 10:55:57;;;;;;;3.73;1.87;;;;;;;3.83;44.22;100975.84;4972734;28;20745;-68
2022/03/31 10:58:25;;;;;;;5.27;2.20;;;;;;;3.91;44.90;100986.63;4972712;28;20329;-63
2022/03/31 11:00:56;;;;;;;8.32;2.00;;;;;;;3.52;44.87;100974.63;4972634;28;20294;-67
2022/03/31 11:03:23;;;;;;;5.53;3.13;;;;;;;3.47;46.26;100976.72;4972973;28;20070;-64
2022/03/31 11:05:50;;;;;;;10.83;2.20;;;;;;;3.57;45.06;100989.13;4973681;28;20768;-67
2022/03/31 11:08:22;;;;;;;4.30;2.63;;;;;;;3.68;45.87;100981.28;4973723;28;20274;-65
2022/03/31 11:10:52;;;;;;;6.60;2.90;;;;;;;3.74;44.15;100987.88;4972897;28;20641;-66
2022/03/31 11:13:20;;;;;;;9.43;2.30;;;;;;;3.80;44.65;100984.81;4974151;28;20376;-63
2022/03/31 11:15:54;;;;;;;4.23;2.13;;;;;;;3.74;44.79;100986.09;4976312;28;20662;-63
2022/03/31 11:18:21;;;;;;;5.63;2.47;;;;;;;3.66;45.62;100987.63;4975880;28;20329;-62
2022/03/31 11:20:58;;;;;;;6.37;2.00;;;;;;;3.24;45.81;100987.16;4976714;28;20713;-66
2022/03/31 11:23:26;;;;;;;4.03;2.00;;;;;;;3.27;46.42;100988.72;4975975;28;20282;-65
2022/03/31 11:25:52;;;;;;;6.50;1.87;;;;;;;3.22;46.82;100993.47;4975815;28;20310;-65
2022/03/31 11:28:18;;;;;;;4.43;2.00;;;;;;;3.11;47.49;100987.16;4958057;28;20274;-64
2022/03/31 11:30:46;;;;;;;5.93;2.40;;;;;;;2.99;47.09;100981.94;4975337;28;20302;-64
2022/03/31 11:33:14;;;;;;;8.73;1.83;;;;;;;3.27;46.95;100992.19;4975452;28;20034;-61
2022/03/31 11:35:40;;;;;;;5.87;2.20;;;;;;;3.40;45.52;100987.72;4975651;28;20266;-65